Flight Track Log - Related Links

Times and Time Zones

All times are in EST time to prevent confusion due to time zone crossing. See the PDT4207 flight status page for this flight to view local times or setup timezone preferences in your user account.

Time Position Orientation Groundspeed Altitude Reporting Facility
EST Latitude Longitude Course Direction KTS MPH feet Rate Location/Type
Sun 09:31:31 PM 39.8833 -75.2333 350° North 113 130 500  Level Philadelphia TRACON
Sun 09:32:13 PM 39.9167 -75.2500 339° North 115 132 1,600 1,353 Climbing Philadelphia TRACON
Sun 09:33:13 PM 39.9500 -75.2667 339° North 126 145 2,800 700 Climbing Philadelphia TRACON
Sun 09:34:00 PM 40.0450 -75.2937 349° North  Level Estimated
Sun 09:34:13 PM 39.9833 -75.3000 323° Northwest 170 196 3,000  Level Philadelphia TRACON
Sun 09:35:00 PM 40.1033 -75.3065 350° North  Level FlightAware Approximate
Sun 09:35:19 PM 40.0333 -75.3000 360° North 169 194 3,700  Level Philadelphia TRACON
Sun 09:36:00 PM 40.1616 -75.3194 350° North  Level FlightAware Approximate
Sun 09:36:13 PM 40.0667 -75.3167 339° North 166 191 4,000  Level Philadelphia TRACON
Sun 09:38:00 PM 40.1691 -75.3094 349° North  Level FlightAware Approximate
Sun 09:45:00 PM 40.5752 -75.4146 349° North  Level FlightAware Approximate
Sun 09:46:00 PM 40.6334 -75.4291 349° North  Level FlightAware Approximate
Sun 09:47:00 PM 40.6915 -75.4437 349° North  Level FlightAware Approximate
Sun 09:48:00 PM 40.7502 -75.4500 North  Level FlightAware Approximate
Sun 09:49:00 PM 40.8093 -75.4500 North  Level FlightAware Approximate
Sun 09:50:00 PM 40.8685 -75.4500 North  Level FlightAware Approximate
Sun 09:51:00 PM 40.9276 -75.4500 North  Level FlightAware Approximate
Sun 09:52:00 PM 40.9867 -75.4500 North  Level FlightAware Approximate
Sun 09:53:00 PM 41.0459 -75.4510 357° North  Level FlightAware Approximate
Sun 09:54:00 PM 41.1049 -75.4555 357° North  Level FlightAware Approximate
Sun 09:55:00 PM 41.1640 -75.4600 357° North  Level FlightAware Approximate
Sun 09:56:00 PM 41.2230 -75.4646 357° North  Level FlightAware Approximate
Sun 09:57:00 PM 41.2821 -75.4667 North  Level FlightAware Approximate
Sun 09:58:00 PM 41.3413 -75.4667 North  Level FlightAware Approximate
Sun 09:59:00 PM 41.4004 -75.4667 North  Level FlightAware Approximate
Sun 10:00:00 PM 41.4595 -75.4667 North  Level FlightAware Approximate
Sun 10:01:00 PM 41.5084 -75.5082 323° Northwest  Level FlightAware Approximate
Sun 10:02:00 PM 41.5557 -75.5555 323° Northwest  Level FlightAware Approximate
Sun 10:03:00 PM 41.6031 -75.6028 323° Northwest  Level FlightAware Approximate
Sun 10:04:00 PM 41.6504 -75.6503 323° Northwest  Level FlightAware Approximate
Sun 10:05:00 PM 41.6978 -75.6977 323° Northwest  Level FlightAware Approximate
Sun 10:06:00 PM 41.7460 -75.7436 326° Northwest  Level FlightAware Approximate
Sun 10:07:00 PM 41.7947 -75.7885 326° Northwest  Level FlightAware Approximate
Sun 10:08:00 PM 41.8435 -75.8335 325° Northwest  Level FlightAware Approximate
Sun 10:09:00 PM 41.8922 -75.8785 325° Northwest  Level FlightAware Approximate
Sun 10:10:00 PM 41.9407 -75.9240 323° Northwest  Level FlightAware Approximate
Sun 10:11:00 PM 41.9882 -75.9715 323° Northwest  Level FlightAware Approximate
Sun 10:12:00 PM 42.0356 -76.0189 323° Northwest  Level FlightAware Approximate
Sun 10:13:00 PM 42.0831 -76.0664 323° Northwest  Level FlightAware Approximate
Sun 10:14:00 PM 42.1306 -76.1139 323° Northwest  Level FlightAware Approximate
Sun 10:15:00 PM 42.1583 -76.0917 37° Northeast  Level FlightAware Approximate
Sun 10:16:00 PM 42.1898 -76.0255 62° Northeast  Level FlightAware Approximate
Sun 10:17:00 PM 42.2000 -75.9667 90° East  Level FlightAware Approximate
Sun 10:18:00 PM 42.2084 -75.9796 90° East  Level Estimated
Sun 10:19:00 PM 42.2084 -75.9796 90° East  Level Estimated
Sun 10:20:00 PM 42.2084 -75.9796 90° East  Level Estimated

Login

Don't have an account? Register now (free) for customized features, flight alerts, and more!